createdAt,value
2017-03-28T11:20:52.397Z,11.95
2017-03-28T11:21:56.746Z,25.20
2017-03-28T11:23:01.116Z,29.75
2017-03-28T11:24:05.553Z,31.07
2017-03-28T11:25:10.056Z,32.50
2017-03-28T11:26:14.417Z,33.44
2017-03-28T11:27:18.814Z,33.35
2017-03-28T11:28:23.274Z,34.11
2017-03-28T11:29:27.764Z,34.01
2017-03-28T11:30:32.190Z,34.39
2017-03-28T11:31:36.581Z,35.70
2017-03-28T11:32:41.003Z,36.66
2017-03-28T11:33:45.657Z,36.29
2017-03-28T11:34:50.074Z,36.57
2017-03-28T11:35:54.429Z,36.57
2017-03-28T11:36:58.896Z,36.02
2017-03-28T11:38:03.402Z,36.49
2017-03-28T11:39:07.862Z,36.59
2017-03-28T11:40:12.366Z,36.21
2017-03-28T11:41:16.806Z,37.04
2017-03-28T11:42:21.268Z,37.90
2017-03-28T11:43:25.772Z,39.03
2017-03-28T11:44:30.210Z,38.84
2017-03-28T11:45:34.659Z,37.80
2017-03-28T11:46:42.445Z,37.88
2017-03-28T11:47:47.379Z,39.39
2017-03-28T11:48:52.182Z,39.58
2017-03-28T11:49:57.093Z,39.89
2017-03-28T11:51:02.401Z,39.51
2017-03-28T11:52:07.669Z,39.24
2017-03-28T11:53:12.399Z,39.24
2017-03-28T11:54:17.734Z,39.53
2017-03-28T11:55:22.988Z,39.53
2017-03-28T11:56:27.970Z,40.00
2017-03-28T11:57:32.570Z,39.51
2017-03-28T11:58:37.922Z,39.72
2017-03-28T11:59:42.915Z,39.34
2017-03-28T12:00:47.916Z,40.36
2017-03-28T12:01:52.309Z,39.89
2017-03-28T12:02:56.830Z,40.45
2017-03-28T12:04:01.719Z,41.40
2017-03-28T12:05:06.585Z,40.74
2017-03-28T12:06:11.278Z,41.50
2017-03-28T12:07:15.740Z,42.25
2017-03-28T12:08:20.210Z,43.01
2017-03-28T12:09:24.601Z,43.01
2017-03-28T12:10:29.326Z,43.94
2017-03-28T12:11:34.014Z,44.62
2017-03-28T12:12:38.716Z,43.30
2017-03-28T12:13:43.530Z,43.49
2017-03-28T12:14:48.001Z,42.54
2017-03-28T12:15:52.827Z,42.63
2017-03-28T12:16:57.835Z,42.08
2017-03-28T12:18:02.971Z,41.21
2017-03-28T12:19:07.809Z,41.40
2017-03-28T12:20:12.528Z,42.61
2017-03-28T12:21:17.198Z,44.70
2017-03-28T12:22:21.865Z,44.62
2017-03-28T12:23:27.144Z,45.10
2017-03-28T12:24:31.936Z,45.19
2017-03-28T12:25:36.618Z,45.29
2017-03-28T12:26:41.314Z,43.32
2017-03-28T12:27:47.378Z,43.13
2017-03-28T12:28:52.521Z,43.32
2017-03-28T12:29:57.298Z,43.88
2017-03-28T12:31:02.290Z,43.62
2017-03-28T12:32:07.780Z,41.52
2017-03-28T12:33:14.117Z,41.05
2017-03-28T12:34:18.710Z,41.05
2017-03-28T12:35:25.047Z,42.52
2017-03-28T12:36:29.704Z,43.87
2017-03-28T12:37:34.526Z,44.06
2017-03-28T12:38:39.282Z,44.17
2017-03-28T12:39:44.110Z,43.49
2017-03-28T12:40:48.743Z,44.72
2017-03-28T12:41:53.576Z,44.81
2017-03-28T12:42:58.272Z,44.62
2017-03-28T12:44:02.829Z,44.43
2017-03-28T12:45:07.494Z,44.53
2017-03-28T12:46:12.242Z,44.15
2017-03-28T12:47:16.876Z,43.49
2017-03-28T12:48:21.938Z,43.58
2017-03-28T12:49:26.840Z,42.92
2017-03-28T12:50:35.178Z,43.37
2017-03-28T12:51:40.973Z,44.22
2017-03-28T12:52:46.884Z,44.81
2017-03-28T12:53:52.292Z,44.72
2017-03-28T12:54:57.544Z,44.62
2017-03-28T12:56:02.185Z,44.53
2017-03-28T12:57:07.277Z,43.77
2017-03-28T12:58:14.855Z,44.81
2017-03-28T12:59:24.889Z,44.15
2017-03-28T13:00:31.340Z,44.15
2017-03-28T13:01:38.654Z,44.24
